Need help?(800) 881-5068

Boston Windshield Replacement? Get Auto Glass Quotes Instantly!

1
Complete this free and simple quote form
2
Compare competitive quotes from local pros
3
Instantly schedule your service and save $$$
Compare Prices
Boston City Seal Boston MA Auto Glass Parts Guide -Shows Various Auto Glass Parts On A Vehicle

Boston Windshield Replacement



Boston General Information

Boston Windshield Replacement Pictures

About Boston Windshield Replacement



City of Boston Skyline


Boston General Information

  • Reference:Boston, MA Wikipedia Page
  • Population: 4.5M
  • Nearby Cities: Somerville, Cambridge, Brookline, Chelsea, Revere, Winthrop, Newton, Waltham, Lexington, Woburn, Melrose, Medford, Malden, Everett, Saugus
  • Zips: 02108–02137, 02163, 02196, 02199, 02201, 02203, 02204, 02205, 02206, 02210, 02211, 02212, 02215, 02217, 02222, 02228, 02241, 02266, 02283, 02284, 02293, 02295, 02297, 02298
  • Common Vehicles: Sedans and SUV’s
  • Car Window Hazards: Extreme cold, road debris, new construction

Boston Windshield Replacement Pictures


Broken Windshield in Boston Massachusetts, step 1: Removing the Windshield Boston Windshield Replacement, step 2: Prepare to Install New Windshield Installing Windshield in Boston MA, step 3: Setting New Windshield New Car Windshield in Boston, step 4: Clean & Present to Customer

Boston Windshield Replacement

The need for windshield replacement can, unfortunately, come up at any time. Driving on the highway can raise the chance of rocks being tossed up from other vehicles. Extreme cold and heat causes glass to contract and expand triggering small cracks to grow. Collisions and other random circumstances can cause the need for windshield replacement as well. Fortunately, you have Auto Glass Quotez to assist you in your search for the right auto glass company. Just fill in the necessary vehicle information to receive fast quotes you can easily compare and book.

Why window glass is the favorite target of break-ins

In almost all vehicle break-ins, the side windows are smashed to gain entry. Tempered door glass, versus laminated glass, is easy to break when hit and shatters into hundreds of pieces, allowing open access to the vehicle. Once splintered, the fallen glass fragments can only be cleaned away, and new vehicle glass must be installed.

New car window installation is a task best left to professional technicians at an auto glass repair shop. While you can drive down to a local auto body shop, it is a good idea to schedule a mobile Boston, MA car window repair or replacement company. Mobile service offers the convenience of service completed on your schedule at your home or office. You can very easily get in touch with a mobile vehicle glass service provider through Auto Glass Quotez.

Fixing driver and passenger side windows

Unless you are a certified auto glass technician, steer clear from fixing your car’s crank-up or power windows by yourself. In this case, you will have to remove the door panel and check what went wrong with the motor and regulator. If troubleshooting is not your strong suit (or even removing bolts for that matter), it is wise not to attempt dismantling your window and following the internet video or illustrations to fix the issue.

Don’t ignore cracks and dents in your car windows

Extreme temperatures worsen cracks and other damage in your car’s windows. The heater in your car, and Boston’s winter frost on the outside of the glass, will cause damage to grow and spread to other areas of the window. To avoid a safety and security compromise, get a new auto glass installation when you spot any small or large cracks on your vehicle’s windshield. Book an appointment with a Boston, MA car window repair and replacement specialist quickly with Auto Glass Quotez, and receive great cost savings along the way.

By

Boston Most Recent Auto Glass & Windshield Costs


Date Zipcode Year Make Model Part Price
09/22/2022 08:59 03051 1984 Chrysler Lebaron 2 Door Convertible *I Can't Find My Part Pricing - N/A
09/15/2022 03:47 01984 2010 Volkswagen Beetle (New Beetle) 2 Hatchback Front Passenger's Side Door Glass $194.79 - $226.00
09/08/2022 09:17 02135 1994 Saturn SL2 Windshield $287.60 - $318.81
09/07/2022 07:05 01902 2003 Toyota Corolla 4 Door Sedan Windshield $193.69 - $224.90
08/29/2022 20:49 01776 2004 Isuzu *I Can't Find My Vehicle *I Can't Find My Part Pricing - N/A
07/25/2022 12:53 02460 2011 Volkswagen Jetta 4 Door Sedan Windshield $274.89 - $306.10
07/24/2022 20:47 03051 1988 Chevrolet Pickup C1500 Standard Cab Windshield $216.62 - $247.83
07/20/2022 15:07 01841 2008 Honda Civic 4 Door Sedan Windshield $214.44 - $245.65
07/20/2022 15:05 01841 2015 Honda CR-V *I Can't Find My Part Pricing - N/A
07/18/2022 17:54 02139 2004 Subaru Legacy 4 Door Station Wagon Windshield $206.39 - $237.60
06/28/2022 18:28 01453 2011 Mercedes-Benz GLK350 Windshield $355.68 - $386.89
06/28/2022 18:26 01453 2011 Mercedes-Benz GLK350 Windshield $355.68 - $386.89
06/13/2022 10:11 02131 2004 Jeep Liberty Windshield $200.25 - $231.46
06/10/2022 19:05 02131 2004 Jeep Liberty Windshield $200.25 - $231.46
06/01/2022 11:10 02184 2014 Honda Civic 4 Door Sedan Windshield $308.20 - $339.41
05/31/2022 17:54 01905 2006 Subaru Forester Windshield $201.95 - $233.16
05/20/2022 13:22 02115 2016 Mercedes-Benz G63 AMG *I Can't Find My Part Pricing - N/A
05/15/2022 15:49 02131 2004 Jeep Liberty Windshield $200.25 - $231.46
05/04/2022 04:55 02215 2006 Acura MDX Windshield $288.61 - $319.82
05/02/2022 17:26 01523 2014 Lexus GS 350 *I Can't Find My Part Pricing - N/A
04/25/2022 04:53 01830 2006 Mitsubishi Outlander Windshield $204.03 - $235.24
04/24/2022 22:07 01938 2010 Toyota Corolla 4 Door Sedan Windshield $229.73 - $260.94
04/19/2022 08:55 01601 2006 Mercedes-Benz C280 Windshield $280.54 - $311.75
04/08/2022 16:20 02151 2000 Chrysler Voyager Windshield $199.15 - $230.36
04/04/2022 18:49 03060 2013 Hyundai Elantra 4 Door Sedan Windshield $260.30 - $291.51
04/01/2022 23:15 01960 2010 Mercedes-Benz GLK350 Windshield $386.95 - $418.16
03/27/2022 07:21 01608 2013 Volkswagen Jetta 4 Door Station Wagon Windshield $224.81 - $256.02
03/22/2022 08:54 01835 1995 Chevrolet Pickup C1500 Extended Cab Windshield $199.15 - $230.36
03/22/2022 08:52 01835 1995 Chevrolet Pickup C1500 Extended Cab Windshield $199.15 - $230.36
03/21/2022 11:19 02169 2013 Nissan Altima 4 Door Sedan Windshield $303.98 - $335.19
03/17/2022 07:30 02121 2013 Mercedes-Benz C300 Windshield $387.98 - $419.19
03/17/2022 03:22 02142 2016 Hyundai Elantra 4 Door Sedan *I Can't Find My Part Pricing - N/A
03/13/2022 12:16 01844 2005 Acura TSX 4 Door Sedan Windshield $201.95 - $233.16
03/12/2022 12:01 02125 2006 Suzuki Grand Vitara Windshield $221.11 - $252.32
03/11/2022 12:23 01606 2002 Saturn SL2 Windshield $216.62 - $247.83
03/10/2022 14:05 02121 2015 Mercedes-Benz C300 Windshield - Rain Sensor $1846.86 - $1976.92
03/02/2022 09:25 01864 2008 Land Rover LR2 Windshield - Rain Sensor Heated Pricing - N/A
02/27/2022 09:57 01605 2013 Honda Accord 4 Door Sedan Windshield $218.11 - $249.32
02/27/2022 09:57 01605 2013 Honda Accord 4 Door Sedan Windshield $218.11 - $249.32
02/15/2022 11:55 03052 2003 Toyota RAV4 4 Door Utility Windshield $206.33 - $237.54
02/12/2022 03:56 03841 1985 Porsche 944 2 Door Coupe *I Can't Find My Part Pricing - N/A
02/09/2022 18:27 02127 2005 Honda Accord 4 Door Sedan Windshield $195.33 - $226.54
02/09/2022 18:27 02127 2005 Honda Accord 4 Door Sedan Windshield $195.33 - $226.54
02/05/2022 13:52 02115 2012 Fiat 500 Windshield $344.30 - $375.51
02/04/2022 17:27 01844 2009 Chevrolet Silverado C1500 2 Door Extended Cab Windshield $199.15 - $230.36
02/01/2022 15:58 02472 2009 Hyundai Elantra 4 Door Sedan Driver's Side Quarter Glass $698.55 - $747.75
01/23/2022 02:02 02150 2011 Jeep Grand Cherokee Windshield - Rain Sensor $259.18 - $290.39
01/23/2022 02:02 02150 2011 Jeep Grand Cherokee Windshield - Rain Sensor $259.18 - $290.39
01/23/2022 02:02 02150 2011 Jeep Grand Cherokee Windshield - Rain Sensor $259.18 - $290.39
01/23/2022 02:02 02150 2011 Jeep Grand Cherokee Windshield - Rain Sensor $259.18 - $290.39

Testimonials

Holli Sisk
-I love using the website plugin that offers custom quoting to my customers 24/7! I have more business than ever before! Thanks AGQZ!
Savannah Weaver
-As a small business owner, making your business name stand out in the sea of Google can be depressing. I've been using Auto Glass Quotez for about 2 months now and have had countless leads. I don't know what I did before! You're an idiot if you don't want to use this great service you can only benefit from.
Dario Zadro
-I really enjoyed designing and developing this massive project! The team at AGQZ has been awesome to work with, and they have put so much thought into the details for both the visitor and vendor when it comes to the UX for auto glass quotes. The back-end CRM has all the bells and whistles including charting, billing, and so much more! I look forward to this site becoming the industry leader in the auto glass field.